Time;durP1;ratioP1;P1;durP2;ratioP2;P2;SDS_P1;SDS_P2;PMS_P1;PMS_P2;Temp;Humidity;BMP_temperature;BMP_pressure;BME280_temperature;BME280_humidity;BME280_pressure;Samples;Min_cycle;Max_cycle;Signal;HPM_P1;HPM_P2
2022/03/19 00:01:32;;;;;;;15.32;14.43;;;;;;;2.21;100.00;104126.75;5042404;28;20045;-80
2022/03/19 00:04:00;;;;;;;17.85;16.77;;;;;;;2.25;100.00;104130.00;5025065;28;20042;-81
2022/03/19 00:06:39;;;;;;;18.58;17.48;;;;;;;2.26;100.00;104127.16;5020722;28;20485;-80
2022/03/19 00:09:14;;;;;;;19.90;18.73;;;;;;;2.15;100.00;104135.34;5017905;28;20603;-81
2022/03/19 00:11:47;;;;;;;19.80;18.60;;;;;;;2.27;100.00;104141.47;5024192;28;20052;-80
2022/03/19 00:14:21;;;;;;;22.65;21.35;;;;;;;2.17;100.00;104144.97;5019993;28;20432;-80
2022/03/19 00:16:50;;;;;;;19.73;18.58;;;;;;;2.17;100.00;104144.13;5029662;28;20065;-80
2022/03/19 00:19:23;;;;;;;19.40;18.30;;;;;;;2.15;100.00;104154.16;5018657;28;20069;-80
2022/03/19 00:21:56;;;;;;;19.75;18.60;;;;;;;2.00;100.00;104148.31;5009830;28;20049;-81
2022/03/19 00:24:31;;;;;;;24.27;22.88;;;;;;;2.02;100.00;104146.34;5026876;28;20413;-80
2022/03/19 00:26:59;;;;;;;26.55;25.05;;;;;;;2.07;100.00;104145.94;5024048;28;20056;-80
2022/03/19 00:29:32;;;;;;;30.48;28.77;;;;;;;2.05;100.00;104148.75;5023934;28;20390;-80
2022/03/19 00:32:00;;;;;;;30.45;28.77;;;;;;;1.96;100.00;104150.44;5027126;28;20054;-79
2022/03/19 00:34:34;;;;;;;35.25;33.35;;;;;;;1.86;100.00;104157.59;5029477;28;20050;-81
2022/03/19 00:37:07;;;;;;;35.75;33.80;;;;;;;1.70;100.00;104156.28;5031765;28;20049;-80
2022/03/19 00:39:36;;;;;;;37.40;35.40;;;;;;;1.62;100.00;104152.56;5032552;28;20045;-81
2022/03/19 00:42:04;;;;;;;39.55;37.45;;;;;;;1.59;100.00;104152.81;5034227;28;20050;-81
2022/03/19 00:44:37;;;;;;;43.70;41.38;;;;;;;1.56;100.00;104169.19;5021552;28;20054;-81
2022/03/19 00:47:06;;;;;;;42.90;40.60;;;;;;;1.45;100.00;104168.31;5028909;28;20780;-80
2022/03/19 00:49:39;;;;;;;42.88;40.58;;;;;;;1.45;100.00;104164.75;5025541;28;20049;-80
2022/03/19 00:52:07;;;;;;;46.47;44.00;;;;;;;1.34;100.00;104163.84;5031914;28;20053;-80
2022/03/19 00:54:36;;;;;;;49.80;47.13;;;;;;;1.45;100.00;104172.81;5025965;28;20045;-80
2022/03/19 00:57:09;;;;;;;50.08;47.38;;;;;;;1.41;100.00;104168.69;5030997;28;20037;-80
2022/03/19 00:59:42;;;;;;;57.15;54.10;;;;;;;1.60;100.00;104170.63;5025206;28;20063;-80
2022/03/19 01:02:16;;;;;;;66.32;62.78;;;;;;;1.56;100.00;104169.19;5024757;28;20516;-80
2022/03/19 01:04:49;;;;;;;79.85;75.60;;;;;;;1.63;100.00;104154.25;5027567;28;20077;-80
2022/03/19 01:07:22;;;;;;;92.75;87.90;;;;;;;1.57;100.00;104162.84;5032064;28;20536;-80
2022/03/19 01:09:51;;;;;;;110.35;104.63;;;;;;;1.59;100.00;104166.22;5027499;28;20052;-80
2022/03/19 01:12:24;;;;;;;112.68;106.82;;;;;;;1.62;100.00;104166.00;5026037;28;20060;-80
2022/03/19 01:14:57;;;;;;;124.95;118.45;;;;;;;1.78;100.00;104166.34;5020872;28;20057;-79
2022/03/19 01:17:31;;;;;;;151.70;143.65;;;;;;;1.87;100.00;104172.75;5023867;28;20049;-79
2022/03/19 01:20:06;;;;;;;168.35;159.25;;;;;;;1.85;100.00;104164.81;5034426;28;20057;-80
2022/03/19 01:22:40;;;;;;;180.60;170.88;;;;;;;1.81;100.00;104167.88;5030446;28;20058;-79
2022/03/19 01:25:16;;;;;;;174.48;165.10;;;;;;;1.82;100.00;104173.16;5022675;28;20058;-79
2022/03/19 01:27:51;;;;;;;173.73;164.38;;;;;;;1.81;100.00;104165.22;5028387;28;20049;-79
2022/03/19 01:30:21;;;;;;;167.23;158.25;;;;;;;1.79;100.00;104167.19;5025535;28;20054;-79
2022/03/19 01:32:54;;;;;;;160.27;151.75;;;;;;;1.81;100.00;104166.06;5018727;28;20057;-79
2022/03/19 01:35:27;;;;;;;153.55;145.43;;;;;;;1.79;100.00;104169.88;5029100;28;20379;-80
2022/03/19 01:38:03;;;;;;;142.60;135.15;;;;;;;1.76;100.00;104167.47;5032256;28;20049;-79
2022/03/19 01:40:37;;;;;;;138.65;131.40;;;;;;;1.70;100.00;104167.00;5020766;28;20055;-79
2022/03/19 01:43:11;;;;;;;134.77;127.75;;;;;;;1.69;100.00;104172.53;5029531;28;20057;-79
2022/03/19 01:45:45;;;;;;;128.60;121.88;;;;;;;1.66;100.00;104178.16;5020715;28;20054;-79
2022/03/19 01:48:13;;;;;;;135.10;128.05;;;;;;;1.56;100.00;104178.13;5014806;28;20049;-80
2022/03/19 01:50:41;;;;;;;136.48;129.35;;;;;;;1.67;100.00;104169.09;5029715;28;20041;-79
2022/03/19 01:53:16;;;;;;;153.63;145.52;;;;;;;1.70;100.00;104176.91;5029398;28;20522;-80
2022/03/19 01:55:51;;;;;;;165.13;156.30;;;;;;;1.77;100.00;104166.47;5024254;28;20409;-79
2022/03/19 01:58:19;;;;;;;184.88;174.88;;;;;;;1.86;100.00;104163.84;5029079;28;20064;-80
2022/03/19 02:00:52;;;;;;;200.07;189.25;;;;;;;1.80;100.00;104156.31;5028988;28;20053;-79
2022/03/19 02:03:25;;;;;;;212.50;201.23;;;;;;;1.78;100.00;104163.66;5032119;28;20049;-79
2022/03/19 02:06:01;;;;;;;193.50;183.02;;;;;;;1.75;100.00;104163.06;5025641;28;20054;-79
2022/03/19 02:08:37;;;;;;;209.30;198.00;;;;;;;1.76;100.00;104162.94;5020472;28;20042;-80
2022/03/19 02:11:12;;;;;;;191.55;181.25;;;;;;;1.63;100.00;104154.25;5029033;28;20049;-80
2022/03/19 02:13:40;;;;;;;188.38;178.25;;;;;;;1.57;100.00;104161.00;5017705;28;20049;-80
2022/03/19 02:16:13;;;;;;;194.30;183.98;;;;;;;1.53;100.00;104163.13;4985800;28;1036695;-80
2022/03/19 02:18:47;;;;;;;189.70;179.45;;;;;;;1.55;100.00;104151.38;5026197;28;20049;-80
2022/03/19 02:21:15;;;;;;;203.18;192.20;;;;;;;1.51;100.00;104143.59;5023036;28;20501;-80
2022/03/19 02:26:47;;;;;;;229.93;217.57;;;;;;;1.47;100.00;104152.91;5016389;28;20053;-80
2022/03/19 02:29:20;;;;;;;228.52;216.32;;;;;;;1.42;100.00;104154.28;5024308;28;20046;-80
2022/03/19 02:31:51;;;;;;;201.50;190.60;;;;;;;1.31;100.00;104152.53;5025746;28;20053;-80
2022/03/19 02:34:25;;;;;;;186.05;176.00;;;;;;;1.29;100.00;104149.13;5030877;28;20061;-80
2022/03/19 02:36:58;;;;;;;189.88;179.57;;;;;;;1.28;100.00;104158.16;5028415;28;20538;-79
2022/03/19 02:39:31;;;;;;;200.63;189.75;;;;;;;1.26;100.00;104144.03;5043929;28;20064;-80
2022/03/19 02:42:01;;;;;;;215.73;204.15;;;;;;;1.23;100.00;104139.78;5017108;28;20128;-80
2022/03/19 02:44:36;;;;;;;241.02;228.13;;;;;;;1.23;100.00;104147.84;5023202;28;20068;-80
2022/03/19 02:47:09;;;;;;;253.65;239.88;;;;;;;1.14;100.00;104127.16;5029524;28;20057;-80
2022/03/19 02:49:42;;;;;;;262.98;248.80;;;;;;;1.23;100.00;104142.47;5022610;28;20042;-79
2022/03/19 02:52:10;;;;;;;286.63;270.95;;;;;;;1.25;100.00;104142.34;5012916;28;20096;-80
2022/03/19 02:54:40;;;;;;;336.77;317.83;;;;;;;1.38;100.00;104131.38;5023027;28;20426;-80
2022/03/19 02:57:13;;;;;;;372.58;350.95;;;;;;;1.38;100.00;104129.53;5017838;28;20065;-79
2022/03/19 02:59:46;;;;;;;369.33;347.85;;;;;;;1.27;100.00;104135.00;5023214;28;20052;-79
2022/03/19 03:02:20;;;;;;;363.10;342.02;;;;;;;1.21;100.00;104140.91;5024699;28;20045;-79
2022/03/19 03:04:48;;;;;;;389.52;366.52;;;;;;;1.19;100.00;104141.03;5033207;28;20418;-80
2022/03/19 03:07:21;;;;;;;431.38;405.42;;;;;;;1.14;100.00;104140.56;5025746;28;20057;-80
2022/03/19 03:09:51;;;;;;;457.77;429.27;;;;;;;1.19;100.00;104149.91;5027573;28;20052;-79
2022/03/19 03:12:26;;;;;;;523.25;489.90;;;;;;;1.12;100.00;104140.69;5030356;28;20050;-80
2022/03/19 03:14:59;;;;;;;553.38;517.90;;;;;;;1.11;100.00;104141.69;5017653;28;20395;-80
2022/03/19 03:17:34;;;;;;;595.58;557.10;;;;;;;1.12;100.00;104135.34;5029185;28;20045;-79
2022/03/19 03:20:03;;;;;;;644.20;601.53;;;;;;;1.11;100.00;104130.09;5029696;28;20045;-81
2022/03/19 03:22:32;;;;;;;725.78;677.40;;;;;;;1.08;100.00;104138.38;5025937;28;20052;-80
2022/03/19 03:25:08;;;;;;;755.85;705.05;;;;;;;1.05;100.00;104141.34;5023857;28;20062;-79
2022/03/19 03:27:41;;;;;;;809.92;754.85;;;;;;;0.97;100.00;104125.91;5038158;28;20494;-79
2022/03/19 03:30:15;;;;;;;866.00;806.05;;;;;;;1.01;100.00;104138.09;5022824;28;20065;-80
2022/03/19 03:32:48;;;;;;;897.50;834.78;;;;;;;0.97;100.00;104132.13;5029780;28;20059;-80
2022/03/19 03:35:16;;;;;;;927.75;861.95;;;;;;;0.95;100.00;104139.47;5026404;28;20057;-80
2022/03/19 03:37:49;;;;;;;936.75;870.00;;;;;;;0.95;100.00;104127.88;5029935;28;20064;-81
2022/03/19 03:40:23;;;;;;;943.83;876.45;;;;;;;0.92;100.00;104134.34;5022199;28;20046;-79
2022/03/19 03:42:57;;;;;;;975.15;904.47;;;;;;;0.90;100.00;104139.00;5020094;28;20065;-79
2022/03/19 03:45:29;;;;;;;1026.47;950.70;;;;;;;0.82;100.00;104122.69;5019850;28;20141;-80
2022/03/19 03:48:03;;;;;;;1062.95;983.22;;;;;;;0.85;100.00;104131.31;5031413;28;20425;-79
2022/03/19 03:50:36;;;;;;;1064.75;984.22;;;;;;;0.80;100.00;104128.19;5020306;28;20045;-79
2022/03/19 03:53:09;;;;;;;1093.60;999.90;;;;;;;0.81;100.00;104129.88;5022228;28;20473;-81
2022/03/19 03:55:45;;;;;;;1116.45;999.90;;;;;;;0.75;100.00;104114.31;5024736;28;20045;-79
2022/03/19 03:58:19;;;;;;;1135.05;999.90;;;;;;;0.81;100.00;104112.94;5019949;28;20427;-79
2022/03/19 04:00:47;;;;;;;1141.45;999.90;;;;;;;0.79;100.00;104121.13;5035051;28;20041;-80
2022/03/19 04:03:21;;;;;;;1151.57;999.90;;;;;;;0.71;100.00;104112.88;5026814;28;20050;-80
2022/03/19 04:05:54;;;;;;;1153.03;999.90;;;;;;;0.65;100.00;104110.72;5029826;28;20053;-79
2022/03/19 04:08:27;;;;;;;1162.55;999.90;;;;;;;0.74;100.00;104125.19;5034276;28;20474;-78
2022/03/19 04:11:02;;;;;;;1166.40;999.90;;;;;;;0.72;100.00;104133.34;5027910;28;20056;-80
2022/03/19 04:13:30;;;;;;;1168.63;999.90;;;;;;;0.80;100.00;104132.69;5039829;28;20053;-80
2022/03/19 04:16:04;;;;;;;1172.90;999.90;;;;;;;0.64;100.00;104135.81;5021940;28;20049;-79
2022/03/19 04:18:37;;;;;;;1172.00;999.90;;;;;;;0.52;100.00;104137.69;5026118;28;20458;-79
2022/03/19 04:21:10;;;;;;;1164.55;999.90;;;;;;;0.49;100.00;104135.25;5022254;28;20053;-80
2022/03/19 04:23:43;;;;;;;1168.35;999.90;;;;;;;0.45;100.00;104131.97;5017390;28;20049;-78
2022/03/19 04:26:13;;;;;;;1175.75;999.90;;;;;;;0.47;100.00;104129.16;5019773;28;20045;-80
2022/03/19 04:28:46;;;;;;;1177.88;999.90;;;;;;;0.43;100.00;104125.03;5023305;28;20045;-80
2022/03/19 04:31:19;;;;;;;1182.18;999.90;;;;;;;0.39;100.00;104115.53;5031960;28;20061;-81
2022/03/19 04:33:47;;;;;;;1189.43;999.90;;;;;;;0.44;100.00;104113.34;5028954;28;20110;-81
2022/03/19 04:36:30;;;;;;;1191.68;999.90;;;;;;;0.42;100.00;104115.31;5018077;28;20056;-81
2022/03/19 04:39:05;;;;;;;1194.43;999.90;;;;;;;0.37;100.00;104122.88;5011516;28;20053;-81
2022/03/19 04:41:41;;;;;;;1196.88;999.90;;;;;;;0.39;100.00;104118.22;5020160;28;20050;-80
2022/03/19 04:44:16;;;;;;;1201.50;999.90;;;;;;;0.32;100.00;104105.34;5029243;28;20056;-81
2022/03/19 04:46:49;;;;;;;1207.38;999.90;;;;;;;0.41;100.00;104116.28;5023609;28;20057;-80
2022/03/19 04:49:22;;;;;;;1205.85;999.90;;;;;;;0.40;100.00;104111.91;5027137;28;20433;-80
2022/03/19 04:51:55;;;;;;;1214.10;999.90;;;;;;;0.42;100.00;104118.00;5024782;28;20064;-80
2022/03/19 04:54:28;;;;;;;1217.35;999.90;;;;;;;0.39;100.00;104113.75;5025068;28;20060;-79
2022/03/19 04:57:03;;;;;;;1217.10;999.90;;;;;;;0.30;100.00;104107.31;5022585;28;20050;-80
2022/03/19 04:59:31;;;;;;;1217.10;999.90;;;;;;;0.31;100.00;104113.53;5017161;28;20069;-80
2022/03/19 05:02:05;;;;;;;1219.53;999.90;;;;;;;0.29;100.00;104105.63;5028141;28;20056;-80
2022/03/19 05:04:39;;;;;;;1225.32;999.90;;;;;;;0.32;100.00;104107.19;5017439;28;20076;-80
2022/03/19 05:07:12;;;;;;;1224.32;999.90;;;;;;;0.19;100.00;104083.22;5016492;28;20053;-79
2022/03/19 05:12:34;;;;;;;1224.38;999.90;;;;;;;0.22;100.00;104101.75;5003156;28;20410;-80
2022/03/19 05:15:11;;;;;;;1230.10;999.90;;;;;;;0.28;100.00;104106.59;5027647;28;20064;-79
2022/03/19 05:17:45;;;;;;;1233.68;999.90;;;;;;;0.26;100.00;104102.31;5027444;28;20116;-80
2022/03/19 05:20:14;;;;;;;1233.25;999.90;;;;;;;0.32;100.00;104105.34;5025789;28;20037;-80
2022/03/19 05:22:48;;;;;;;1235.60;999.90;;;;;;;0.31;100.00;104110.84;5025365;28;20058;-80
2022/03/19 05:25:21;;;;;;;1233.18;999.90;;;;;;;0.21;100.00;104094.69;5024047;28;20052;-79
2022/03/19 05:27:55;;;;;;;1234.75;999.90;;;;;;;0.19;100.00;104101.13;5032582;28;20057;-79
2022/03/19 05:30:28;;;;;;;1236.80;999.90;;;;;;;0.24;100.00;104112.34;5031971;28;20049;-79
2022/03/19 05:32:57;;;;;;;1239.18;999.90;;;;;;;0.26;100.00;104110.34;5034907;28;20061;-79
2022/03/19 05:35:31;;;;;;;1238.22;999.90;;;;;;;0.25;100.00;104109.53;5032094;28;20050;-78
2022/03/19 05:38:00;;;;;;;1241.95;999.90;;;;;;;0.23;100.00;104110.63;5024620;28;20058;-79
2022/03/19 05:40:33;;;;;;;1243.78;999.90;;;;;;;0.24;100.00;104106.97;5024389;28;20048;-79
2022/03/19 05:43:07;;;;;;;1243.95;999.90;;;;;;;0.30;100.00;104115.38;5025915;28;20054;-79
2022/03/19 05:45:41;;;;;;;1245.18;999.90;;;;;;;0.25;100.00;104109.53;5026329;28;20046;-79
2022/03/19 05:48:14;;;;;;;1248.97;999.90;;;;;;;0.27;100.00;104107.56;5028806;28;20045;-80
2022/03/19 05:50:47;;;;;;;1247.35;999.90;;;;;;;0.37;100.00;104118.34;5029916;28;20057;-79
2022/03/19 05:53:21;;;;;;;1248.63;999.90;;;;;;;0.42;100.00;104110.78;5028013;28;20049;-79
2022/03/19 05:55:49;;;;;;;1250.20;999.90;;;;;;;0.38;100.00;104116.56;5017338;28;20054;-79
2022/03/19 05:58:19;;;;;;;1253.43;999.90;;;;;;;0.50;100.00;104120.91;5026382;28;20062;-79
2022/03/19 06:00:48;;;;;;;1252.88;999.90;;;;;;;0.36;100.00;104122.03;5031184;28;20054;-79
2022/03/19 06:03:22;;;;;;;1253.40;999.90;;;;;;;0.43;100.00;104120.53;5031759;28;20057;-80
2022/03/19 06:05:51;;;;;;;1257.63;999.90;;;;;;;0.38;100.00;104121.91;5035688;28;20409;-79
2022/03/19 06:08:24;;;;;;;1256.13;999.90;;;;;;;0.46;100.00;104119.44;5025918;28;20057;-79
2022/03/19 06:10:58;;;;;;;1262.28;999.90;;;;;;;0.44;100.00;104122.25;5023535;28;20045;-80
2022/03/19 06:13:32;;;;;;;1263.63;999.90;;;;;;;0.49;100.00;104128.06;5023679;28;20082;-79
2022/03/19 06:16:00;;;;;;;1266.75;999.90;;;;;;;0.53;100.00;104127.84;5035892;28;20052;-80
2022/03/19 06:18:34;;;;;;;1265.88;999.90;;;;;;;0.60;100.00;104129.00;5024776;28;20470;-79
2022/03/19 06:21:07;;;;;;;1266.75;999.90;;;;;;;0.56;100.00;104132.94;5032919;28;20060;-80
2022/03/19 06:23:40;;;;;;;1267.97;999.90;;;;;;;0.63;100.00;104112.66;5017674;28;20042;-80
2022/03/19 06:26:08;;;;;;;1274.00;999.90;;;;;;;0.68;100.00;104123.88;5028696;28;20045;-81
2022/03/19 06:28:43;;;;;;;1274.30;999.90;;;;;;;0.72;100.00;104130.66;5027004;28;20056;-79
2022/03/19 06:31:16;;;;;;;1274.57;999.90;;;;;;;0.71;100.00;104115.56;5023635;28;20050;-79
2022/03/19 06:33:49;;;;;;;1276.28;999.90;;;;;;;0.80;100.00;104133.56;5031133;28;20050;-79
2022/03/19 06:39:08;;;;;;;1281.65;999.90;;;;;;;0.92;100.00;104136.19;5028333;28;20049;-79
2022/03/19 06:41:41;;;;;;;1281.82;999.90;;;;;;;1.00;100.00;104131.84;5021661;28;20045;-80
2022/03/19 06:44:16;;;;;;;1284.18;999.90;;;;;;;1.04;100.00;104123.53;5016971;28;20038;-80
2022/03/19 06:46:44;;;;;;;1287.90;999.90;;;;;;;1.10;100.00;104121.19;5020527;28;20042;-80
2022/03/19 06:49:17;;;;;;;1289.40;999.90;;;;;;;1.15;100.00;104128.88;5024680;28;20063;-79
2022/03/19 06:51:50;;;;;;;1295.72;999.90;;;;;;;1.23;100.00;104129.06;5026819;28;20059;-80
2022/03/19 06:54:18;;;;;;;1292.53;999.90;;;;;;;1.27;100.00;104129.63;5029687;28;20053;-79
2022/03/19 06:56:52;;;;;;;1298.43;999.90;;;;;;;1.29;100.00;104122.31;5016539;28;20403;-80
2022/03/19 06:59:26;;;;;;;1300.05;999.90;;;;;;;1.43;100.00;104126.47;5024509;28;20050;-79
2022/03/19 07:01:55;;;;;;;1301.47;999.90;;;;;;;1.56;100.00;104131.59;5014399;28;20057;-80
2022/03/19 07:04:28;;;;;;;1302.80;999.90;;;;;;;1.69;100.00;104133.09;5026877;28;20057;-78
2022/03/19 07:06:56;;;;;;;1307.00;999.90;;;;;;;1.88;100.00;104131.47;5020673;28;20060;-81
2022/03/19 07:09:30;;;;;;;1308.20;999.90;;;;;;;1.82;100.00;104113.19;5024461;28;20044;-80
2022/03/19 07:12:05;;;;;;;1308.47;999.90;;;;;;;2.01;100.00;104107.88;5020128;28;20053;-80
2022/03/19 07:14:35;;;;;;;1312.88;999.90;;;;;;;2.20;100.00;104120.50;5018566;28;20049;-80
2022/03/19 07:17:03;;;;;;;1311.15;999.90;;;;;;;2.31;100.00;104129.44;5018276;28;20061;-79
2022/03/19 07:19:31;;;;;;;1315.47;999.90;;;;;;;2.33;100.00;104114.84;5028317;28;20056;-79
2022/03/19 07:22:04;;;;;;;1318.50;999.90;;;;;;;2.51;100.00;104116.88;5027895;28;20056;-81
2022/03/19 07:24:33;;;;;;;1319.93;999.90;;;;;;;2.59;100.00;104121.53;5027692;28;20052;-80
2022/03/19 07:27:01;;;;;;;;;;;;;;;2.64;100.00;104119.28;5022787;28;20057;-80
2022/03/19 07:29:29;;;;;;;;;;;;;;;2.69;100.00;104119.69;5025293;28;19928;-80
2022/03/19 07:32:03;;;;;;;;;;;;;;;2.74;100.00;104122.81;5025743;28;20276;-79
2022/03/19 07:34:31;;;;;;;;;;;;;;;2.94;100.00;104117.41;5029059;28;19925;-80
2022/03/19 07:37:04;;;;;;;;;;;;;;;3.02;100.00;104112.16;5031662;28;19921;-79
2022/03/19 07:39:37;;;;;;;;;;;;;;;3.10;100.00;104109.59;5018809;28;19921;-79
2022/03/19 07:42:10;;;;;;;;;;;;;;;3.19;100.00;104111.41;5036233;28;19925;-79
2022/03/19 07:44:42;;;;;;;;;;;;;;;3.29;100.00;104115.94;5026494;28;19925;-79
2022/03/19 07:47:12;;;;;;;;;;;;;;;3.28;100.00;104119.63;5029565;28;19940;-78
2022/03/19 07:49:45;;;;;;;;;;;;;;;3.39;100.00;104112.19;5017432;28;20385;-80
2022/03/19 07:52:18;;;;;;;;;;;;;;;3.58;100.00;104123.91;5033445;28;19928;-79
2022/03/19 07:54:46;;;;;;;;;;;;;;;3.62;100.00;104119.91;5022579;28;19925;-80
2022/03/19 07:57:19;;;;;;;;;;;;;;;3.87;100.00;104118.38;5031710;28;19931;-81
2022/03/19 07:59:52;;;;;;;;;;;;;;;4.01;100.00;104125.09;5027798;28;19955;-79
2022/03/19 08:02:26;;;;;;;;;;;;;;;3.87;100.00;104133.72;5023290;28;19921;-79
2022/03/19 08:05:00;;;;;;;;;;;;;;;3.95;100.00;104122.16;5030972;28;20450;-80
2022/03/19 08:07:32;;;;;;;;;;;;;;;3.88;100.00;104133.56;5019448;28;19925;-80
2022/03/19 08:10:00;;;;;;;;;;;;;;;3.98;100.00;104128.09;5029876;28;19935;-79
2022/03/19 08:12:28;;;;;;;;;;;;;;;4.06;100.00;104125.50;5019510;28;20324;-79
2022/03/19 08:14:56;;;;;;;;;;;;;;;4.32;100.00;104135.53;5021611;28;19921;-81
2022/03/19 08:17:26;;;;;;;;;;;;;;;4.31;100.00;104135.69;5017379;28;20593;-81
2022/03/19 08:19:59;;;;;;;;;;;;;;;4.21;100.00;104135.75;5015707;28;19925;-80
2022/03/19 08:22:32;;;;;;;;;;;;;;;4.45;100.00;104123.53;5015245;28;19925;-80
2022/03/19 08:25:05;;;;;;;;;;;;;;;4.43;100.00;104129.94;5013132;28;19928;-81
2022/03/19 08:27:33;;;;;;;;;;;;;;;4.50;100.00;104130.19;5020874;28;19936;-78
2022/03/19 08:30:03;;;;;;;;;;;;;;;4.53;100.00;104137.09;5017161;28;20697;-77
2022/03/19 08:32:33;;;;;;;;;;;;;;;4.56;100.00;104126.84;5018586;28;19929;-80
2022/03/19 08:35:05;;;;;;;;;;;;;;;4.67;100.00;104124.91;5023525;28;19928;-80
2022/03/19 08:37:38;;;;;;;;;;;;;;;4.81;100.00;104126.25;5012607;28;19926;-80
2022/03/19 08:40:18;;;;;;;;;;;;;;;4.83;100.00;104129.63;5018098;28;19932;-80
2022/03/19 08:42:52;;;;;;;;;;;;;;;5.01;100.00;104127.72;5013868;28;19936;-81
2022/03/19 08:45:25;;;;;;;;;;;;;;;5.14;100.00;104126.47;5016553;28;19925;-80
2022/03/19 08:47:55;;;;;;;;;;;;;;;5.20;100.00;104131.25;5019622;28;20317;-80
2022/03/19 08:50:28;;;;;;;;;;;;;;;5.11;100.00;104133.88;5018821;28;19948;-80
2022/03/19 08:53:02;;;;;;;;;;;;;;;5.31;100.00;104128.28;5017410;28;19929;-80
2022/03/19 08:55:29;;;;;;;;;;;;;;;5.41;100.00;104120.91;5023441;28;20382;-80
2022/03/19 08:58:03;;;;;;;;;;;;;;;5.44;100.00;104117.88;5025841;28;20316;-81
2022/03/19 09:00:37;;;;;;;;;;;;;;;5.47;100.00;104122.13;5018432;28;19944;-80
2022/03/19 09:03:06;;;;;;;;;;;;;;;5.65;100.00;104115.78;5017970;28;19951;-81
2022/03/19 09:05:39;;;;;;;;;;;;;;;5.74;100.00;104107.53;5021786;28;19928;-80
2022/03/19 09:08:11;;;;;;;;;;;;;;;5.77;100.00;104109.94;5027541;28;19936;-80
2022/03/19 09:10:45;;;;;;;;;;;;;;;5.84;100.00;104107.44;5023970;28;19925;-80
2022/03/19 09:13:12;;;;;;;;;;;;;;;6.03;100.00;104108.19;5016652;28;20501;-80
2022/03/19 09:15:40;;;;;;;;;;;;;;;6.25;100.00;104109.44;5026073;28;19921;-81
2022/03/19 09:18:16;;;;;;;;;;;;;;;6.20;100.00;104106.38;5021782;28;19947;-77
2022/03/19 09:20:49;;;;;;;;;;;;;;;6.24;100.00;104103.19;5019121;28;19936;-77
2022/03/19 09:23:17;;;;;;;;;;;;;;;6.37;100.00;104093.72;5019701;28;19932;-77
2022/03/19 09:25:44;;;;;;;;;;;;;;;6.45;100.00;104099.16;5019187;28;20348;-77
2022/03/19 09:28:17;;;;;;;;;;;;;;;6.62;100.00;104100.00;5019235;28;19925;-77
2022/03/19 09:30:46;;;;;;;;;;;;;;;6.55;100.00;104090.88;5020662;28;19925;-80
2022/03/19 09:33:20;;;;;;;1213.47;999.90;;;;;;;6.56;100.00;104088.00;5027261;28;20297;-80
2022/03/19 09:35:53;;;;;;;1185.20;999.90;;;;;;;6.46;100.00;104088.16;5022461;28;20053;-79
2022/03/19 09:38:21;;;;;;;1047.90;970.28;;;;;;;6.71;100.00;104085.47;5020822;28;20520;-79
2022/03/19 09:40:55;;;;;;;384.58;361.95;;;;;;;6.60;100.00;104086.63;5019374;28;20065;-78
2022/03/19 09:43:29;;;;;;;210.57;199.38;;;;;;;6.64;100.00;104085.28;5032954;28;20690;-79
2022/03/19 09:46:03;;;;;;;190.18;179.85;;;;;;;6.63;100.00;104080.03;5022991;28;20056;-79
2022/03/19 09:48:32;;;;;;;111.90;106.10;;;;;;;6.65;100.00;104080.72;5027972;28;20057;-77
2022/03/19 09:51:01;;;;;;;66.47;62.92;;;;;;;6.60;100.00;104073.09;5025554;28;20064;-78
2022/03/19 09:53:35;;;;;;;53.03;50.22;;;;;;;6.78;100.00;104086.47;5018497;28;20482;-79
2022/03/19 09:56:10;;;;;;;40.35;38.15;;;;;;;6.89;100.00;104071.72;5018767;28;20049;-80
2022/03/19 09:58:43;;;;;;;36.90;34.90;;;;;;;6.91;100.00;104068.84;5014242;28;20058;-80
2022/03/19 10:01:18;;;;;;;40.00;37.85;;;;;;;7.11;100.00;104064.75;5036556;28;20060;-79
2022/03/19 10:03:50;;;;;;;27.48;25.98;;;;;;;7.07;100.00;104067.97;5027016;28;20068;-78
2022/03/19 10:09:09;;;;;;;15.82;14.82;;;;;;;6.99;100.00;104068.84;5030107;28;20053;-79
2022/03/19 10:11:42;;;;;;;14.13;13.23;;;;;;;6.96;100.00;104052.91;5028651;28;20045;-78
2022/03/19 10:14:21;;;;;;;15.85;14.85;;;;;;;7.31;100.00;104061.66;5011597;28;20783;-77
2022/03/19 10:16:51;;;;;;;14.45;13.55;;;;;;;6.99;100.00;104063.44;5011172;28;20054;-80
2022/03/19 10:19:25;;;;;;;16.35;15.35;;;;;;;7.10;100.00;104051.38;5013651;28;20058;-78
2022/03/19 10:21:54;;;;;;;12.57;11.77;;;;;;;7.24;100.00;104055.25;5012585;28;20060;-79
2022/03/19 10:24:28;;;;;;;11.82;11.02;;;;;;;7.48;100.00;104049.72;5019195;28;20052;-78
2022/03/19 10:27:01;;;;;;;13.85;12.95;;;;;;;7.37;100.00;104036.53;5026503;28;20053;-78
2022/03/19 10:29:37;;;;;;;10.23;9.52;;;;;;;7.55;100.00;104024.63;5015072;28;20065;-79
2022/03/19 10:32:14;;;;;;;11.27;10.57;;;;;;;7.58;100.00;104026.97;5009810;28;20065;-79
2022/03/19 10:34:43;;;;;;;10.15;9.45;;;;;;;7.74;100.00;104021.47;5010057;28;20050;-78
2022/03/19 10:37:37;;;;;;;7.72;7.22;;;;;;;7.39;100.00;104007.41;5008734;28;20061;-78
2022/03/19 10:40:11;;;;;;;4.85;4.55;;;;;;;7.35;100.00;104003.38;5009343;28;20491;-78
2022/03/19 10:42:44;;;;;;;4.53;4.22;;;;;;;7.70;100.00;104003.84;5012862;28;20050;-78
2022/03/19 10:45:22;;;;;;;2.95;2.75;;;;;;;7.43;100.00;104014.19;5023497;28;20064;-78
2022/03/19 10:47:55;;;;;;;3.50;3.30;;;;;;;7.65;100.00;104009.81;5015383;28;20057;-80
2022/03/19 10:50:29;;;;;;;4.22;3.92;;;;;;;7.81;100.00;104011.59;5011493;28;20057;-82
2022/03/19 10:53:02;;;;;;;4.38;4.07;;;;;;;7.78;100.00;104013.81;5021804;28;20068;-78
2022/03/19 10:55:36;;;;;;;3.08;2.88;;;;;;;7.61;100.00;104008.50;5022838;28;20038;-79
2022/03/19 10:58:04;;;;;;;3.03;2.83;;;;;;;7.72;100.00;104006.38;5014128;28;20069;-79
2022/03/19 11:00:37;;;;;;;2.13;2.03;;;;;;;7.82;100.00;103997.00;5023927;28;20113;-79
2022/03/19 11:03:13;;;;;;;2.50;2.40;;;;;;;7.88;100.00;103998.16;5018705;28;20054;-78
2022/03/19 11:05:43;;;;;;;2.92;2.72;;;;;;;8.06;100.00;104005.16;5015848;28;20425;-77
2022/03/19 11:08:20;;;;;;;2.75;2.55;;;;;;;8.28;100.00;103993.44;5013864;28;20519;-79
2022/03/19 11:10:57;;;;;;;2.35;2.25;;;;;;;8.73;100.00;103992.72;5019622;28;20406;-78
2022/03/19 11:13:35;;;;;;;1.73;1.63;;;;;;;8.47;100.00;103992.13;5024743;28;20049;-79
2022/03/19 11:16:09;;;;;;;1.10;1.10;;;;;;;8.36;100.00;103986.28;5022722;28;20049;-80
2022/03/19 11:18:43;;;;;;;1.00;1.00;;;;;;;8.02;100.00;103996.53;5013219;28;20418;-80
2022/03/19 11:21:18;;;;;;;0.80;0.80;;;;;;;8.39;100.00;103984.00;5021354;28;20050;-79
2022/03/19 11:23:56;;;;;;;0.80;0.80;;;;;;;8.51;100.00;103979.88;5015163;28;20485;-78
2022/03/19 11:26:31;;;;;;;1.08;1.08;;;;;;;8.78;100.00;103976.72;5011573;28;20418;-78
2022/03/19 11:28:59;;;;;;;1.08;1.08;;;;;;;8.93;100.00;103979.44;5009375;28;20042;-79
2022/03/19 11:31:33;;;;;;;0.93;0.93;;;;;;;8.59;100.00;103964.50;5020402;28;20053;-78
2022/03/19 11:34:15;;;;;;;1.00;1.00;;;;;;;8.86;100.00;103960.31;5015017;28;20046;-79
2022/03/19 11:36:58;;;;;;;0.93;0.93;;;;;;;8.60;100.00;103956.19;5019601;28;20064;-78
2022/03/19 11:39:27;;;;;;;0.90;0.90;;;;;;;8.60;100.00;103945.31;5017078;28;20376;-78
2022/03/19 11:42:00;;;;;;;0.70;0.70;;;;;;;8.68;100.00;103947.13;5014187;28;20053;-78
2022/03/19 11:44:34;;;;;;;0.90;0.90;;;;;;;9.10;100.00;103942.91;5020098;28;20072;-80
2022/03/19 11:47:09;;;;;;;1.00;1.00;;;;;;;9.45;100.00;103940.38;5020495;28;20044;-79
2022/03/19 11:49:48;;;;;;;0.80;0.80;;;;;;;8.73;100.00;103932.97;5019923;28;20057;-80